sensor_id;sensor_type;location;lat;lon;timestamp;P1;durP1;ratioP1;P2;durP2;ratioP2
38053;SDS011;23859;50.672;7.164;2023-04-06T00:02:15;19.15;;;10.45;;
38053;SDS011;23859;50.672;7.164;2023-04-06T00:04:41;19.02;;;10.20;;
38053;SDS011;23859;50.672;7.164;2023-04-06T00:07:07;19.25;;;9.88;;
38053;SDS011;23859;50.672;7.164;2023-04-06T00:09:33;19.42;;;10.30;;
38053;SDS011;23859;50.672;7.164;2023-04-06T00:11:59;15.18;;;10.07;;
38053;SDS011;23859;50.672;7.164;2023-04-06T00:14:25;23.25;;;12.40;;
38053;SDS011;23859;50.672;7.164;2023-04-06T00:16:51;16.50;;;10.98;;
38053;SDS011;23859;50.672;7.164;2023-04-06T00:19:17;26.10;;;12.57;;
38053;SDS011;23859;50.672;7.164;2023-04-06T00:21:43;18.38;;;10.23;;
38053;SDS011;23859;50.672;7.164;2023-04-06T00:24:10;19.98;;;10.38;;
38053;SDS011;23859;50.672;7.164;2023-04-06T00:26:36;16.92;;;10.95;;
38053;SDS011;23859;50.672;7.164;2023-04-06T00:29:02;19.77;;;10.50;;
38053;SDS011;23859;50.672;7.164;2023-04-06T00:31:28;19.90;;;10.77;;
38053;SDS011;23859;50.672;7.164;2023-04-06T00:33:54;18.42;;;10.88;;
38053;SDS011;23859;50.672;7.164;2023-04-06T00:36:20;16.27;;;10.38;;
38053;SDS011;23859;50.672;7.164;2023-04-06T00:38:46;22.33;;;10.15;;
38053;SDS011;23859;50.672;7.164;2023-04-06T00:41:12;17.33;;;9.68;;
38053;SDS011;23859;50.672;7.164;2023-04-06T00:43:39;14.88;;;9.98;;
38053;SDS011;23859;50.672;7.164;2023-04-06T00:46:05;18.45;;;9.77;;
38053;SDS011;23859;50.672;7.164;2023-04-06T00:48:31;16.50;;;9.40;;
38053;SDS011;23859;50.672;7.164;2023-04-06T00:50:57;17.45;;;10.02;;
38053;SDS011;23859;50.672;7.164;2023-04-06T00:53:24;17.10;;;10.57;;
38053;SDS011;23859;50.672;7.164;2023-04-06T00:55:50;16.95;;;9.52;;
38053;SDS011;23859;50.672;7.164;2023-04-06T00:58:16;19.25;;;10.73;;
38053;SDS011;23859;50.672;7.164;2023-04-06T01:00:42;20.83;;;10.40;;
38053;SDS011;23859;50.672;7.164;2023-04-06T01:03:08;16.85;;;10.57;;
38053;SDS011;23859;50.672;7.164;2023-04-06T01:05:35;18.00;;;11.13;;
38053;SDS011;23859;50.672;7.164;2023-04-06T01:08:05;18.98;;;11.32;;
38053;SDS011;23859;50.672;7.164;2023-04-06T01:10:31;20.38;;;10.73;;
38053;SDS011;23859;50.672;7.164;2023-04-06T01:12:57;19.65;;;11.23;;
38053;SDS011;23859;50.672;7.164;2023-04-06T01:15:23;19.83;;;10.85;;
38053;SDS011;23859;50.672;7.164;2023-04-06T01:17:50;20.20;;;10.70;;
38053;SDS011;23859;50.672;7.164;2023-04-06T01:20:16;20.30;;;10.52;;
38053;SDS011;23859;50.672;7.164;2023-04-06T01:22:42;19.08;;;10.82;;
38053;SDS011;23859;50.672;7.164;2023-04-06T01:25:09;22.08;;;10.98;;
38053;SDS011;23859;50.672;7.164;2023-04-06T01:27:35;17.88;;;10.60;;
38053;SDS011;23859;50.672;7.164;2023-04-06T01:30:01;19.00;;;10.98;;
38053;SDS011;23859;50.672;7.164;2023-04-06T01:32:28;21.20;;;11.32;;
38053;SDS011;23859;50.672;7.164;2023-04-06T01:34:54;17.65;;;11.40;;
38053;SDS011;23859;50.672;7.164;2023-04-06T01:37:20;20.85;;;11.40;;
38053;SDS011;23859;50.672;7.164;2023-04-06T01:39:46;18.27;;;10.15;;
38053;SDS011;23859;50.672;7.164;2023-04-06T01:42:12;21.15;;;10.65;;
38053;SDS011;23859;50.672;7.164;2023-04-06T01:44:38;24.17;;;12.23;;
38053;SDS011;23859;50.672;7.164;2023-04-06T01:47:04;17.48;;;10.73;;
38053;SDS011;23859;50.672;7.164;2023-04-06T01:49:30;24.15;;;10.52;;
38053;SDS011;23859;50.672;7.164;2023-04-06T01:51:56;22.45;;;11.20;;
38053;SDS011;23859;50.672;7.164;2023-04-06T01:54:22;20.13;;;10.45;;
38053;SDS011;23859;50.672;7.164;2023-04-06T01:56:48;21.77;;;12.15;;
38053;SDS011;23859;50.672;7.164;2023-04-06T01:59:16;17.30;;;9.82;;
38053;SDS011;23859;50.672;7.164;2023-04-06T02:01:42;18.50;;;9.93;;
38053;SDS011;23859;50.672;7.164;2023-04-06T02:04:08;15.25;;;10.45;;
38053;SDS011;23859;50.672;7.164;2023-04-06T02:06:34;20.08;;;11.02;;
38053;SDS011;23859;50.672;7.164;2023-04-06T02:09:00;19.13;;;10.18;;
38053;SDS011;23859;50.672;7.164;2023-04-06T02:11:26;19.38;;;10.90;;
38053;SDS011;23859;50.672;7.164;2023-04-06T02:13:52;20.70;;;11.18;;
38053;SDS011;23859;50.672;7.164;2023-04-06T02:16:19;18.73;;;10.77;;
38053;SDS011;23859;50.672;7.164;2023-04-06T02:18:45;22.38;;;11.63;;
38053;SDS011;23859;50.672;7.164;2023-04-06T02:21:11;18.13;;;10.85;;
38053;SDS011;23859;50.672;7.164;2023-04-06T02:23:37;19.75;;;11.23;;
38053;SDS011;23859;50.672;7.164;2023-04-06T02:26:03;18.45;;;10.98;;
38053;SDS011;23859;50.672;7.164;2023-04-06T02:28:30;16.75;;;11.25;;
38053;SDS011;23859;50.672;7.164;2023-04-06T02:30:56;17.38;;;11.68;;
38053;SDS011;23859;50.672;7.164;2023-04-06T02:33:22;19.10;;;10.60;;
38053;SDS011;23859;50.672;7.164;2023-04-06T02:35:48;21.30;;;12.10;;
38053;SDS011;23859;50.672;7.164;2023-04-06T02:38:14;21.73;;;11.65;;
38053;SDS011;23859;50.672;7.164;2023-04-06T02:40:40;20.90;;;12.45;;
38053;SDS011;23859;50.672;7.164;2023-04-06T02:43:06;18.13;;;11.85;;
38053;SDS011;23859;50.672;7.164;2023-04-06T02:45:32;19.15;;;11.32;;
38053;SDS011;23859;50.672;7.164;2023-04-06T02:47:58;19.85;;;11.27;;
38053;SDS011;23859;50.672;7.164;2023-04-06T02:50:24;21.00;;;12.32;;
38053;SDS011;23859;50.672;7.164;2023-04-06T02:52:51;20.45;;;11.48;;
38053;SDS011;23859;50.672;7.164;2023-04-06T02:55:17;18.13;;;11.13;;
38053;SDS011;23859;50.672;7.164;2023-04-06T02:57:44;21.33;;;11.77;;
38053;SDS011;23859;50.672;7.164;2023-04-06T03:00:11;19.90;;;11.10;;
38053;SDS011;23859;50.672;7.164;2023-04-06T03:02:37;23.15;;;12.55;;
38053;SDS011;23859;50.672;7.164;2023-04-06T03:05:03;18.90;;;11.07;;
38053;SDS011;23859;50.672;7.164;2023-04-06T03:07:30;23.42;;;11.30;;
38053;SDS011;23859;50.672;7.164;2023-04-06T03:09:56;18.98;;;11.68;;
38053;SDS011;23859;50.672;7.164;2023-04-06T03:12:22;19.48;;;11.73;;
38053;SDS011;23859;50.672;7.164;2023-04-06T03:14:48;20.70;;;12.20;;
38053;SDS011;23859;50.672;7.164;2023-04-06T03:17:14;18.88;;;11.65;;
38053;SDS011;23859;50.672;7.164;2023-04-06T03:19:40;18.73;;;11.68;;
38053;SDS011;23859;50.672;7.164;2023-04-06T03:22:06;18.00;;;11.05;;
38053;SDS011;23859;50.672;7.164;2023-04-06T03:24:32;18.35;;;12.57;;
38053;SDS011;23859;50.672;7.164;2023-04-06T03:26:58;21.20;;;11.93;;
38053;SDS011;23859;50.672;7.164;2023-04-06T03:29:25;19.88;;;12.60;;
38053;SDS011;23859;50.672;7.164;2023-04-06T03:31:52;17.35;;;11.73;;
38053;SDS011;23859;50.672;7.164;2023-04-06T03:34:18;19.05;;;11.73;;
38053;SDS011;23859;50.672;7.164;2023-04-06T03:36:44;23.50;;;12.07;;
38053;SDS011;23859;50.672;7.164;2023-04-06T03:39:10;22.63;;;11.90;;
38053;SDS011;23859;50.672;7.164;2023-04-06T03:41:37;25.50;;;13.80;;
38053;SDS011;23859;50.672;7.164;2023-04-06T03:44:03;20.65;;;12.40;;
38053;SDS011;23859;50.672;7.164;2023-04-06T03:46:30;24.08;;;13.07;;
38053;SDS011;23859;50.672;7.164;2023-04-06T03:48:56;20.65;;;12.27;;
38053;SDS011;23859;50.672;7.164;2023-04-06T03:51:22;26.33;;;12.02;;
38053;SDS011;23859;50.672;7.164;2023-04-06T03:53:48;21.08;;;12.55;;
38053;SDS011;23859;50.672;7.164;2023-04-06T03:56:14;23.92;;;13.65;;
38053;SDS011;23859;50.672;7.164;2023-04-06T03:58:40;19.67;;;12.40;;
38053;SDS011;23859;50.672;7.164;2023-04-06T04:01:06;21.15;;;11.95;;
38053;SDS011;23859;50.672;7.164;2023-04-06T04:03:32;23.58;;;12.35;;
38053;SDS011;23859;50.672;7.164;2023-04-06T04:05:58;27.55;;;15.07;;
38053;SDS011;23859;50.672;7.164;2023-04-06T04:08:24;21.75;;;12.45;;
38053;SDS011;23859;50.672;7.164;2023-04-06T04:10:50;21.80;;;12.00;;
38053;SDS011;23859;50.672;7.164;2023-04-06T04:13:16;24.98;;;13.00;;
38053;SDS011;23859;50.672;7.164;2023-04-06T04:15:43;18.35;;;12.27;;
38053;SDS011;23859;50.672;7.164;2023-04-06T04:18:09;26.75;;;13.80;;
38053;SDS011;23859;50.672;7.164;2023-04-06T04:20:35;19.35;;;12.70;;
38053;SDS011;23859;50.672;7.164;2023-04-06T04:23:01;19.83;;;12.70;;
38053;SDS011;23859;50.672;7.164;2023-04-06T04:25:27;25.55;;;13.55;;
38053;SDS011;23859;50.672;7.164;2023-04-06T04:27:53;20.83;;;11.73;;
38053;SDS011;23859;50.672;7.164;2023-04-06T04:30:19;19.95;;;11.82;;
38053;SDS011;23859;50.672;7.164;2023-04-06T04:32:46;25.35;;;13.80;;
38053;SDS011;23859;50.672;7.164;2023-04-06T04:35:12;21.80;;;13.00;;
38053;SDS011;23859;50.672;7.164;2023-04-06T04:37:38;33.42;;;13.70;;
38053;SDS011;23859;50.672;7.164;2023-04-06T04:40:05;25.25;;;14.02;;
38053;SDS011;23859;50.672;7.164;2023-04-06T04:42:32;25.35;;;12.50;;
38053;SDS011;23859;50.672;7.164;2023-04-06T04:44:58;23.80;;;12.75;;
38053;SDS011;23859;50.672;7.164;2023-04-06T04:47:24;21.30;;;11.50;;
38053;SDS011;23859;50.672;7.164;2023-04-06T04:49:50;22.80;;;12.82;;
38053;SDS011;23859;50.672;7.164;2023-04-06T04:52:16;26.35;;;13.35;;
38053;SDS011;23859;50.672;7.164;2023-04-06T04:54:42;21.00;;;12.27;;
38053;SDS011;23859;50.672;7.164;2023-04-06T04:57:08;22.48;;;13.18;;
38053;SDS011;23859;50.672;7.164;2023-04-06T04:59:35;21.80;;;13.27;;
38053;SDS011;23859;50.672;7.164;2023-04-06T05:02:01;24.23;;;12.60;;
38053;SDS011;23859;50.672;7.164;2023-04-06T05:04:27;21.92;;;12.88;;
38053;SDS011;23859;50.672;7.164;2023-04-06T05:07:05;21.20;;;12.43;;
38053;SDS011;23859;50.672;7.164;2023-04-06T05:09:33;24.30;;;13.55;;
38053;SDS011;23859;50.672;7.164;2023-04-06T05:11:59;24.10;;;12.63;;
38053;SDS011;23859;50.672;7.164;2023-04-06T05:14:26;18.73;;;11.95;;
38053;SDS011;23859;50.672;7.164;2023-04-06T05:16:53;24.10;;;12.80;;
38053;SDS011;23859;50.672;7.164;2023-04-06T05:19:19;27.15;;;14.15;;
38053;SDS011;23859;50.672;7.164;2023-04-06T05:21:45;27.88;;;13.15;;
38053;SDS011;23859;50.672;7.164;2023-04-06T05:24:11;25.77;;;13.80;;
38053;SDS011;23859;50.672;7.164;2023-04-06T05:26:37;25.33;;;12.65;;
38053;SDS011;23859;50.672;7.164;2023-04-06T05:29:04;24.70;;;13.68;;
38053;SDS011;23859;50.672;7.164;2023-04-06T05:31:30;24.95;;;13.25;;
38053;SDS011;23859;50.672;7.164;2023-04-06T05:33:56;24.20;;;11.52;;
38053;SDS011;23859;50.672;7.164;2023-04-06T05:36:22;22.88;;;13.13;;
38053;SDS011;23859;50.672;7.164;2023-04-06T05:38:48;20.83;;;12.85;;
38053;SDS011;23859;50.672;7.164;2023-04-06T05:41:15;23.42;;;12.88;;
38053;SDS011;23859;50.672;7.164;2023-04-06T05:43:41;21.45;;;11.55;;
38053;SDS011;23859;50.672;7.164;2023-04-06T05:46:07;22.10;;;11.75;;
38053;SDS011;23859;50.672;7.164;2023-04-06T05:48:33;23.90;;;13.40;;
38053;SDS011;23859;50.672;7.164;2023-04-06T05:50:59;20.17;;;11.98;;
38053;SDS011;23859;50.672;7.164;2023-04-06T05:53:27;23.90;;;13.60;;
38053;SDS011;23859;50.672;7.164;2023-04-06T05:55:54;21.05;;;13.05;;
38053;SDS011;23859;50.672;7.164;2023-04-06T05:58:20;20.20;;;11.88;;
38053;SDS011;23859;50.672;7.164;2023-04-06T06:00:46;21.13;;;12.73;;
38053;SDS011;23859;50.672;7.164;2023-04-06T06:03:12;24.88;;;12.48;;
38053;SDS011;23859;50.672;7.164;2023-04-06T06:05:39;23.90;;;13.60;;
38053;SDS011;23859;50.672;7.164;2023-04-06T06:08:05;20.77;;;13.00;;
38053;SDS011;23859;50.672;7.164;2023-04-06T06:10:32;19.35;;;11.40;;
38053;SDS011;23859;50.672;7.164;2023-04-06T06:12:58;20.15;;;12.52;;
38053;SDS011;23859;50.672;7.164;2023-04-06T06:15:24;20.08;;;11.65;;
38053;SDS011;23859;50.672;7.164;2023-04-06T06:17:50;18.10;;;11.27;;
38053;SDS011;23859;50.672;7.164;2023-04-06T06:20:17;20.13;;;11.68;;
38053;SDS011;23859;50.672;7.164;2023-04-06T06:22:43;22.58;;;13.25;;
38053;SDS011;23859;50.672;7.164;2023-04-06T06:25:09;16.42;;;11.75;;
38053;SDS011;23859;50.672;7.164;2023-04-06T06:27:35;17.05;;;11.40;;
38053;SDS011;23859;50.672;7.164;2023-04-06T06:30:02;21.30;;;12.43;;
38053;SDS011;23859;50.672;7.164;2023-04-06T06:32:28;24.30;;;13.20;;
38053;SDS011;23859;50.672;7.164;2023-04-06T06:34:54;23.40;;;12.02;;
38053;SDS011;23859;50.672;7.164;2023-04-06T06:37:20;17.98;;;11.40;;
38053;SDS011;23859;50.672;7.164;2023-04-06T06:39:46;24.23;;;11.10;;
38053;SDS011;23859;50.672;7.164;2023-04-06T06:42:12;21.92;;;12.85;;
38053;SDS011;23859;50.672;7.164;2023-04-06T06:44:38;19.88;;;11.57;;
38053;SDS011;23859;50.672;7.164;2023-04-06T06:47:04;19.42;;;11.10;;
38053;SDS011;23859;50.672;7.164;2023-04-06T06:49:30;19.15;;;11.20;;
38053;SDS011;23859;50.672;7.164;2023-04-06T06:51:56;20.65;;;10.73;;
38053;SDS011;23859;50.672;7.164;2023-04-06T06:54:22;18.63;;;9.88;;
38053;SDS011;23859;50.672;7.164;2023-04-06T06:56:48;21.83;;;12.18;;
38053;SDS011;23859;50.672;7.164;2023-04-06T06:59:14;16.98;;;11.40;;
38053;SDS011;23859;50.672;7.164;2023-04-06T07:01:41;17.83;;;10.52;;
38053;SDS011;23859;50.672;7.164;2023-04-06T07:04:07;16.63;;;9.90;;
38053;SDS011;23859;50.672;7.164;2023-04-06T07:06:36;17.25;;;10.40;;
38053;SDS011;23859;50.672;7.164;2023-04-06T07:09:02;16.50;;;9.40;;
38053;SDS011;23859;50.672;7.164;2023-04-06T07:11:28;18.10;;;9.75;;
38053;SDS011;23859;50.672;7.164;2023-04-06T07:13:55;15.10;;;9.00;;
38053;SDS011;23859;50.672;7.164;2023-04-06T07:16:21;17.67;;;9.55;;
38053;SDS011;23859;50.672;7.164;2023-04-06T07:18:47;16.17;;;9.57;;
38053;SDS011;23859;50.672;7.164;2023-04-06T07:21:13;16.67;;;9.70;;
38053;SDS011;23859;50.672;7.164;2023-04-06T07:23:39;18.08;;;9.40;;
38053;SDS011;23859;50.672;7.164;2023-04-06T07:26:06;18.50;;;9.75;;
38053;SDS011;23859;50.672;7.164;2023-04-06T07:28:32;17.08;;;9.43;;
38053;SDS011;23859;50.672;7.164;2023-04-06T07:30:58;21.17;;;9.85;;
38053;SDS011;23859;50.672;7.164;2023-04-06T07:33:24;21.48;;;10.65;;
38053;SDS011;23859;50.672;7.164;2023-04-06T07:35:54;33.28;;;15.05;;
38053;SDS011;23859;50.672;7.164;2023-04-06T07:38:21;17.25;;;9.90;;
38053;SDS011;23859;50.672;7.164;2023-04-06T07:40:47;17.58;;;10.98;;
38053;SDS011;23859;50.672;7.164;2023-04-06T07:43:13;19.38;;;10.50;;
38053;SDS011;23859;50.672;7.164;2023-04-06T07:45:40;17.17;;;10.50;;
38053;SDS011;23859;50.672;7.164;2023-04-06T07:48:06;15.95;;;10.00;;
38053;SDS011;23859;50.672;7.164;2023-04-06T07:50:32;18.00;;;9.77;;
38053;SDS011;23859;50.672;7.164;2023-04-06T07:52:58;16.30;;;9.45;;
38053;SDS011;23859;50.672;7.164;2023-04-06T07:55:25;18.92;;;9.55;;
38053;SDS011;23859;50.672;7.164;2023-04-06T07:57:51;17.73;;;10.00;;
38053;SDS011;23859;50.672;7.164;2023-04-06T08:00:17;16.92;;;9.55;;
38053;SDS011;23859;50.672;7.164;2023-04-06T08:02:43;15.18;;;10.13;;
38053;SDS011;23859;50.672;7.164;2023-04-06T08:05:10;17.50;;;9.35;;
38053;SDS011;23859;50.672;7.164;2023-04-06T08:07:36;16.30;;;9.88;;
38053;SDS011;23859;50.672;7.164;2023-04-06T08:10:02;14.55;;;9.77;;
38053;SDS011;23859;50.672;7.164;2023-04-06T08:12:28;17.73;;;9.45;;
38053;SDS011;23859;50.672;7.164;2023-04-06T08:14:54;16.83;;;8.82;;
38053;SDS011;23859;50.672;7.164;2023-04-06T08:17:21;16.90;;;9.90;;
38053;SDS011;23859;50.672;7.164;2023-04-06T08:19:47;16.95;;;9.88;;
38053;SDS011;23859;50.672;7.164;2023-04-06T08:22:14;18.25;;;10.43;;
38053;SDS011;23859;50.672;7.164;2023-04-06T08:24:40;14.27;;;9.10;;
38053;SDS011;23859;50.672;7.164;2023-04-06T08:27:06;17.17;;;9.68;;
38053;SDS011;23859;50.672;7.164;2023-04-06T08:29:32;15.45;;;9.50;;
38053;SDS011;23859;50.672;7.164;2023-04-06T08:31:58;20.10;;;10.95;;
38053;SDS011;23859;50.672;7.164;2023-04-06T08:34:25;15.35;;;9.85;;
38053;SDS011;23859;50.672;7.164;2023-04-06T08:36:51;15.98;;;10.48;;
38053;SDS011;23859;50.672;7.164;2023-04-06T08:39:17;13.27;;;9.30;;
38053;SDS011;23859;50.672;7.164;2023-04-06T08:41:50;21.90;;;9.73;;
38053;SDS011;23859;50.672;7.164;2023-04-06T08:44:17;18.02;;;9.88;;
38053;SDS011;23859;50.672;7.164;2023-04-06T08:46:43;15.85;;;9.75;;
38053;SDS011;23859;50.672;7.164;2023-04-06T08:49:10;15.85;;;10.05;;
38053;SDS011;23859;50.672;7.164;2023-04-06T08:51:37;21.45;;;10.40;;
38053;SDS011;23859;50.672;7.164;2023-04-06T08:54:04;18.08;;;10.73;;
38053;SDS011;23859;50.672;7.164;2023-04-06T08:56:30;17.95;;;10.63;;
38053;SDS011;23859;50.672;7.164;2023-04-06T08:58:56;17.02;;;10.32;;
38053;SDS011;23859;50.672;7.164;2023-04-06T09:01:25;14.70;;;10.13;;
38053;SDS011;23859;50.672;7.164;2023-04-06T09:03:55;14.77;;;9.55;;
38053;SDS011;23859;50.672;7.164;2023-04-06T09:06:22;20.75;;;10.38;;
38053;SDS011;23859;50.672;7.164;2023-04-06T09:08:49;16.73;;;10.07;;
38053;SDS011;23859;50.672;7.164;2023-04-06T09:11:15;21.52;;;11.35;;
38053;SDS011;23859;50.672;7.164;2023-04-06T09:13:45;21.08;;;11.43;;
38053;SDS011;23859;50.672;7.164;2023-04-06T09:16:21;19.05;;;10.95;;
38053;SDS011;23859;50.672;7.164;2023-04-06T09:18:48;21.08;;;9.73;;
38053;SDS011;23859;50.672;7.164;2023-04-06T09:21:18;22.10;;;9.38;;
38053;SDS011;23859;50.672;7.164;2023-04-06T09:23:45;19.70;;;10.68;;
38053;SDS011;23859;50.672;7.164;2023-04-06T09:26:16;17.63;;;10.18;;
38053;SDS011;23859;50.672;7.164;2023-04-06T09:28:56;16.08;;;9.20;;
38053;SDS011;23859;50.672;7.164;2023-04-06T09:31:25;21.00;;;10.65;;
38053;SDS011;23859;50.672;7.164;2023-04-06T09:33:56;20.27;;;11.05;;
38053;SDS011;23859;50.672;7.164;2023-04-06T09:36:29;20.98;;;11.18;;
38053;SDS011;23859;50.672;7.164;2023-04-06T09:38:57;18.05;;;11.00;;
38053;SDS011;23859;50.672;7.164;2023-04-06T09:41:28;20.88;;;11.75;;
38053;SDS011;23859;50.672;7.164;2023-04-06T09:44:05;21.13;;;10.38;;
38053;SDS011;23859;50.672;7.164;2023-04-06T09:46:35;19.27;;;9.75;;
38053;SDS011;23859;50.672;7.164;2023-04-06T09:49:04;17.40;;;9.63;;
38053;SDS011;23859;50.672;7.164;2023-04-06T09:51:33;18.20;;;9.88;;
38053;SDS011;23859;50.672;7.164;2023-04-06T09:54:05;23.85;;;11.18;;
38053;SDS011;23859;50.672;7.164;2023-04-06T09:57:19;18.58;;;9.50;;
38053;SDS011;23859;50.672;7.164;2023-04-06T09:59:27;25.17;;;10.32;;
38053;SDS011;23859;50.672;7.164;2023-04-06T10:02:06;20.63;;;9.98;;
38053;SDS011;23859;50.672;7.164;2023-04-06T10:04:46;20.55;;;10.90;;
38053;SDS011;23859;50.672;7.164;2023-04-06T10:07:18;21.52;;;10.45;;
38053;SDS011;23859;50.672;7.164;2023-04-06T10:09:45;20.45;;;10.02;;
38053;SDS011;23859;50.672;7.164;2023-04-06T10:12:12;18.92;;;9.77;;
38053;SDS011;23859;50.672;7.164;2023-04-06T10:14:39;17.20;;;9.38;;
38053;SDS011;23859;50.672;7.164;2023-04-06T10:17:07;21.58;;;10.50;;
38053;SDS011;23859;50.672;7.164;2023-04-06T10:22:24;31.48;;;10.18;;
38053;SDS011;23859;50.672;7.164;2023-04-06T10:25:30;21.17;;;10.65;;
38053;SDS011;23859;50.672;7.164;2023-04-06T10:28:07;21.25;;;11.85;;
38053;SDS011;23859;50.672;7.164;2023-04-06T10:30:41;18.45;;;10.20;;
38053;SDS011;23859;50.672;7.164;2023-04-06T10:33:19;23.70;;;11.15;;
38053;SDS011;23859;50.672;7.164;2023-04-06T10:35:45;22.55;;;10.77;;
38053;SDS011;23859;50.672;7.164;2023-04-06T10:38:12;22.80;;;10.73;;
38053;SDS011;23859;50.672;7.164;2023-04-06T10:40:39;20.95;;;10.13;;
38053;SDS011;23859;50.672;7.164;2023-04-06T10:43:12;20.77;;;10.32;;
38053;SDS011;23859;50.672;7.164;2023-04-06T10:45:54;20.85;;;10.82;;
38053;SDS011;23859;50.672;7.164;2023-04-06T10:48:21;23.27;;;9.80;;
38053;SDS011;23859;50.672;7.164;2023-04-06T10:50:49;19.13;;;10.02;;
38053;SDS011;23859;50.672;7.164;2023-04-06T10:53:26;18.70;;;10.40;;
38053;SDS011;23859;50.672;7.164;2023-04-06T10:55:53;22.58;;;11.30;;
38053;SDS011;23859;50.672;7.164;2023-04-06T10:58:23;23.83;;;11.27;;
38053;SDS011;23859;50.672;7.164;2023-04-06T11:00:53;19.75;;;11.15;;
38053;SDS011;23859;50.672;7.164;2023-04-06T11:03:20;25.20;;;10.13;;
38053;SDS011;23859;50.672;7.164;2023-04-06T11:05:49;19.50;;;10.60;;
38053;SDS011;23859;50.672;7.164;2023-04-06T11:10:52;21.23;;;10.35;;
38053;SDS011;23859;50.672;7.164;2023-04-06T11:13:49;20.77;;;10.48;;
38053;SDS011;23859;50.672;7.164;2023-04-06T11:16:22;21.17;;;10.65;;
38053;SDS011;23859;50.672;7.164;2023-04-06T11:18:50;20.80;;;9.65;;
38053;SDS011;23859;50.672;7.164;2023-04-06T11:21:19;20.55;;;11.35;;
38053;SDS011;23859;50.672;7.164;2023-04-06T11:24:03;18.85;;;9.52;;
38053;SDS011;23859;50.672;7.164;2023-04-06T11:26:49;16.73;;;9.10;;
38053;SDS011;23859;50.672;7.164;2023-04-06T11:29:17;19.08;;;10.07;;
38053;SDS011;23859;50.672;7.164;2023-04-06T11:31:46;24.35;;;11.63;;
38053;SDS011;23859;50.672;7.164;2023-04-06T11:34:17;20.20;;;10.82;;
38053;SDS011;23859;50.672;7.164;2023-04-06T11:36:44;22.95;;;11.02;;
38053;SDS011;23859;50.672;7.164;2023-04-06T11:39:12;17.70;;;9.55;;
38053;SDS011;23859;50.672;7.164;2023-04-06T11:41:42;20.60;;;10.65;;
38053;SDS011;23859;50.672;7.164;2023-04-06T11:44:14;23.30;;;10.63;;
38053;SDS011;23859;50.672;7.164;2023-04-06T11:46:40;21.40;;;10.02;;
38053;SDS011;23859;50.672;7.164;2023-04-06T11:49:15;18.92;;;9.77;;
38053;SDS011;23859;50.672;7.164;2023-04-06T11:51:41;19.55;;;10.85;;
38053;SDS011;23859;50.672;7.164;2023-04-06T11:54:07;19.88;;;10.85;;
38053;SDS011;23859;50.672;7.164;2023-04-06T11:56:33;20.02;;;10.00;;
38053;SDS011;23859;50.672;7.164;2023-04-06T11:58:59;20.52;;;11.45;;
38053;SDS011;23859;50.672;7.164;2023-04-06T12:01:26;19.85;;;11.25;;
38053;SDS011;23859;50.672;7.164;2023-04-06T12:03:52;19.50;;;11.40;;
38053;SDS011;23859;50.672;7.164;2023-04-06T12:06:18;20.30;;;10.90;;
38053;SDS011;23859;50.672;7.164;2023-04-06T12:08:45;23.08;;;11.15;;
38053;SDS011;23859;50.672;7.164;2023-04-06T12:11:11;21.67;;;10.77;;
38053;SDS011;23859;50.672;7.164;2023-04-06T12:13:37;19.08;;;10.45;;
38053;SDS011;23859;50.672;7.164;2023-04-06T12:16:03;20.02;;;10.73;;
38053;SDS011;23859;50.672;7.164;2023-04-06T12:18:30;22.27;;;11.45;;
38053;SDS011;23859;50.672;7.164;2023-04-06T12:20:57;18.90;;;10.77;;
38053;SDS011;23859;50.672;7.164;2023-04-06T12:23:23;15.98;;;8.48;;
38053;SDS011;23859;50.672;7.164;2023-04-06T12:25:49;18.33;;;9.88;;
38053;SDS011;23859;50.672;7.164;2023-04-06T12:28:16;19.17;;;9.93;;
38053;SDS011;23859;50.672;7.164;2023-04-06T12:30:42;15.88;;;8.65;;
38053;SDS011;23859;50.672;7.164;2023-04-06T12:33:08;17.02;;;9.57;;
38053;SDS011;23859;50.672;7.164;2023-04-06T12:35:36;19.33;;;9.43;;
38053;SDS011;23859;50.672;7.164;2023-04-06T12:38:02;16.90;;;8.25;;
38053;SDS011;23859;50.672;7.164;2023-04-06T12:40:28;13.80;;;7.63;;
38053;SDS011;23859;50.672;7.164;2023-04-06T12:42:54;13.48;;;8.32;;
38053;SDS011;23859;50.672;7.164;2023-04-06T12:45:20;12.70;;;7.82;;
38053;SDS011;23859;50.672;7.164;2023-04-06T12:47:46;17.27;;;8.18;;
38053;SDS011;23859;50.672;7.164;2023-04-06T12:50:12;14.45;;;8.02;;
38053;SDS011;23859;50.672;7.164;2023-04-06T12:52:39;12.65;;;6.93;;
38053;SDS011;23859;50.672;7.164;2023-04-06T12:55:05;11.98;;;6.82;;
38053;SDS011;23859;50.672;7.164;2023-04-06T12:57:32;11.68;;;7.07;;
38053;SDS011;23859;50.672;7.164;2023-04-06T12:59:58;12.45;;;6.40;;
38053;SDS011;23859;50.672;7.164;2023-04-06T13:02:24;10.27;;;6.30;;
38053;SDS011;23859;50.672;7.164;2023-04-06T13:04:51;12.60;;;7.45;;
38053;SDS011;23859;50.672;7.164;2023-04-06T13:07:17;12.07;;;7.00;;
38053;SDS011;23859;50.672;7.164;2023-04-06T13:09:43;14.48;;;7.28;;
38053;SDS011;23859;50.672;7.164;2023-04-06T13:12:09;12.43;;;7.40;;
38053;SDS011;23859;50.672;7.164;2023-04-06T13:14:35;17.13;;;8.00;;
38053;SDS011;23859;50.672;7.164;2023-04-06T13:17:01;12.52;;;8.48;;
38053;SDS011;23859;50.672;7.164;2023-04-06T13:19:27;13.57;;;7.40;;
38053;SDS011;23859;50.672;7.164;2023-04-06T13:21:53;11.25;;;7.38;;
38053;SDS011;23859;50.672;7.164;2023-04-06T13:24:19;14.63;;;7.47;;
38053;SDS011;23859;50.672;7.164;2023-04-06T13:26:46;13.73;;;7.40;;
38053;SDS011;23859;50.672;7.164;2023-04-06T13:29:12;12.40;;;6.13;;
38053;SDS011;23859;50.672;7.164;2023-04-06T13:31:38;10.50;;;6.40;;
38053;SDS011;23859;50.672;7.164;2023-04-06T13:34:04;7.90;;;5.40;;
38053;SDS011;23859;50.672;7.164;2023-04-06T13:36:31;9.90;;;5.30;;
38053;SDS011;23859;50.672;7.164;2023-04-06T13:38:57;10.70;;;5.38;;
38053;SDS011;23859;50.672;7.164;2023-04-06T13:41:24;7.03;;;4.60;;
38053;SDS011;23859;50.672;7.164;2023-04-06T13:43:51;7.75;;;4.40;;
38053;SDS011;23859;50.672;7.164;2023-04-06T13:46:17;10.57;;;5.70;;
38053;SDS011;23859;50.672;7.164;2023-04-06T13:48:44;10.85;;;6.05;;
38053;SDS011;23859;50.672;7.164;2023-04-06T13:51:13;10.77;;;6.38;;
38053;SDS011;23859;50.672;7.164;2023-04-06T13:53:40;12.35;;;6.90;;
38053;SDS011;23859;50.672;7.164;2023-04-06T13:56:07;9.65;;;6.95;;
38053;SDS011;23859;50.672;7.164;2023-04-06T13:58:33;16.10;;;8.25;;
38053;SDS011;23859;50.672;7.164;2023-04-06T14:01:04;14.15;;;7.72;;
38053;SDS011;23859;50.672;7.164;2023-04-06T14:03:34;13.90;;;7.50;;
38053;SDS011;23859;50.672;7.164;2023-04-06T14:06:01;14.27;;;8.15;;
38053;SDS011;23859;50.672;7.164;2023-04-06T14:08:36;12.80;;;8.32;;
38053;SDS011;23859;50.672;7.164;2023-04-06T14:11:02;16.55;;;8.15;;
38053;SDS011;23859;50.672;7.164;2023-04-06T14:13:29;16.25;;;7.38;;
38053;SDS011;23859;50.672;7.164;2023-04-06T14:15:55;11.52;;;6.72;;
38053;SDS011;23859;50.672;7.164;2023-04-06T14:18:22;11.82;;;6.90;;
38053;SDS011;23859;50.672;7.164;2023-04-06T14:20:54;13.85;;;7.93;;
38053;SDS011;23859;50.672;7.164;2023-04-06T14:23:21;12.82;;;7.13;;
38053;SDS011;23859;50.672;7.164;2023-04-06T14:25:47;12.25;;;7.13;;
38053;SDS011;23859;50.672;7.164;2023-04-06T14:28:13;13.75;;;7.53;;
38053;SDS011;23859;50.672;7.164;2023-04-06T14:30:39;12.00;;;7.32;;
38053;SDS011;23859;50.672;7.164;2023-04-06T14:33:05;13.50;;;8.50;;